createdAt,value
2023-03-24T00:00:17.986Z,97440.06
2023-03-24T00:01:19.539Z,97439.25
2023-03-24T00:02:21.072Z,97440.81
2023-03-24T00:03:26.342Z,97443.53
2023-03-24T00:04:28.414Z,97438.84
2023-03-24T00:05:30.601Z,97422.31
2023-03-24T00:06:34.531Z,97436.66
2023-03-24T00:07:39.717Z,97440.66
2023-03-24T00:08:43.842Z,97436.81
2023-03-24T00:09:45.636Z,97433.00
2023-03-24T00:10:48.590Z,97439.31
2023-03-24T00:11:49.955Z,97436.81
2023-03-24T00:12:51.496Z,97434.22
2023-03-24T00:13:52.974Z,97436.53
2023-03-24T00:14:54.566Z,97428.38
2023-03-24T00:15:56.664Z,97430.03
2023-03-24T00:16:59.724Z,97433.16
2023-03-24T00:18:01.327Z,97433.72
2023-03-24T00:19:02.887Z,97430.78
2023-03-24T00:20:13.685Z,97428.53
2023-03-24T00:21:15.769Z,97422.44
2023-03-24T00:22:21.354Z,97428.47
2023-03-24T00:23:23.604Z,97420.84
2023-03-24T00:24:25.372Z,97422.97
2023-03-24T00:25:28.680Z,97415.44
2023-03-24T00:26:30.601Z,97431.66
2023-03-24T00:27:36.739Z,97428.66
2023-03-24T00:28:39.091Z,97418.00
2023-03-24T00:29:41.385Z,97423.19
2023-03-24T00:30:43.037Z,97419.38
2023-03-24T00:31:44.631Z,97411.25
2023-03-24T00:32:46.413Z,97410.97
2023-03-24T00:33:51.007Z,97404.16
2023-03-24T00:34:54.275Z,97411.16
2023-03-24T00:35:57.857Z,97415.72
2023-03-24T00:36:59.466Z,97410.03
2023-03-24T00:38:01.380Z,97405.19
2023-03-24T00:39:04.304Z,97401.41
2023-03-24T00:40:12.324Z,97407.25
2023-03-24T00:41:14.522Z,97404.63
2023-03-24T00:42:16.510Z,97405.56
2023-03-24T00:43:18.086Z,97413.50
2023-03-24T00:44:19.706Z,97411.34
2023-03-24T00:45:23.288Z,97400.41
2023-03-24T00:46:28.737Z,97390.94
2023-03-24T00:47:38.086Z,97404.78
2023-03-24T00:48:41.967Z,97406.84
2023-03-24T00:49:44.650Z,97412.28
2023-03-24T00:50:49.394Z,97415.31
2023-03-24T00:51:51.430Z,97419.63
2023-03-24T00:52:53.891Z,97407.41
2023-03-24T00:53:58.042Z,97419.41
2023-03-24T00:55:01.869Z,97417.28
2023-03-24T00:56:03.642Z,97420.03
2023-03-24T00:57:05.334Z,97422.50
2023-03-24T00:58:07.244Z,97426.31
2023-03-24T00:59:10.275Z,97431.78
2023-03-24T01:00:14.266Z,97419.25
2023-03-24T01:01:16.061Z,97422.53
2023-03-24T01:02:22.308Z,97412.41
2023-03-24T01:03:30.112Z,97420.34
2023-03-24T01:04:31.668Z,97417.72
2023-03-24T01:05:33.885Z,97411.72
2023-03-24T01:06:38.093Z,97404.56
2023-03-24T01:07:42.626Z,97404.53
2023-03-24T01:08:45.372Z,97407.78
2023-03-24T01:09:57.408Z,97406.88
2023-03-24T01:11:01.222Z,97393.59
2023-03-24T01:12:05.640Z,97405.59
2023-03-24T01:13:07.168Z,97400.75
2023-03-24T01:14:09.706Z,97398.63
2023-03-24T01:15:15.047Z,97387.34
2023-03-24T01:16:16.732Z,97393.22
2023-03-24T01:17:19.443Z,97395.38
2023-03-24T01:18:21.399Z,97383.09
2023-03-24T01:19:23.076Z,97376.75
2023-03-24T01:20:24.721Z,97379.47
2023-03-24T01:21:26.285Z,97364.53
2023-03-24T01:22:29.937Z,97370.84
2023-03-24T01:23:31.412Z,97370.09
2023-03-24T01:24:33.600Z,97379.88
2023-03-24T01:25:38.873Z,97381.78
2023-03-24T01:26:40.480Z,97388.53
2023-03-24T01:27:42.370Z,97390.50
2023-03-24T01:28:43.922Z,97387.31
2023-03-24T01:29:45.708Z,97387.34
2023-03-24T01:30:47.267Z,97382.97
2023-03-24T01:31:48.803Z,97396.31
2023-03-24T01:32:50.462Z,97395.56
2023-03-24T01:33:51.997Z,97404.38
2023-03-24T01:34:53.691Z,97399.56
2023-03-24T01:35:55.619Z,97398.50
2023-03-24T01:36:57.190Z,97402.94
2023-03-24T01:37:59.040Z,97407.03
2023-03-24T01:39:01.380Z,97409.81
2023-03-24T01:40:07.404Z,97401.66
2023-03-24T01:41:08.904Z,97407.28
2023-03-24T01:42:21.682Z,97397.44
2023-03-24T01:43:27.484Z,97401.75
2023-03-24T01:44:35.465Z,97399.44
2023-03-24T01:45:40.110Z,97399.69
2023-03-24T01:46:41.783Z,97402.13
2023-03-24T01:47:43.310Z,97399.13
2023-03-24T01:49:10.771Z,97403.56
2023-03-24T01:50:12.147Z,97395.66
2023-03-24T01:51:24.745Z,97398.88
2023-03-24T01:52:36.074Z,97396.44
2023-03-24T01:53:40.547Z,97390.47
2023-03-24T01:54:44.285Z,97400.84
2023-03-24T01:55:46.491Z,97394.25
2023-03-24T01:57:09.263Z,97385.03
2023-03-24T01:58:11.130Z,97372.72
2023-03-24T01:59:15.493Z,97361.09
2023-03-24T02:00:18.266Z,97371.41
2023-03-24T02:01:19.911Z,97357.22
2023-03-24T02:02:22.235Z,97364.47
2023-03-24T02:03:24.522Z,97356.50
2023-03-24T02:04:27.808Z,97357.28
2023-03-24T02:05:31.079Z,97347.72
2023-03-24T02:06:33.459Z,97351.75
2023-03-24T02:07:37.771Z,97349.50
2023-03-24T02:08:42.857Z,97352.69
2023-03-24T02:09:44.724Z,97350.22
2023-03-24T02:10:46.469Z,97349.94
2023-03-24T02:11:48.234Z,97339.09
2023-03-24T02:12:49.733Z,97335.34
2023-03-24T02:13:51.686Z,97335.53
2023-03-24T02:14:53.275Z,97332.81
2023-03-24T02:16:32.248Z,97326.72
2023-03-24T02:17:47.015Z,97322.91
2023-03-24T02:19:00.540Z,97323.81
2023-03-24T02:20:17.088Z,97320.28
2023-03-24T02:21:30.526Z,97321.31
2023-03-24T02:22:51.051Z,97318.13
2023-03-24T02:24:13.961Z,97315.81
2023-03-24T02:25:43.046Z,97315.69
2023-03-24T02:26:50.686Z,97320.16
2023-03-24T02:28:13.672Z,97318.13
2023-03-24T02:29:39.965Z,97316.78
2023-03-24T02:31:13.170Z,97303.41
2023-03-24T02:32:36.211Z,97300.63
2023-03-24T02:34:04.953Z,97308.53
2023-03-24T02:35:21.040Z,97301.88
2023-03-24T02:36:44.923Z,97296.34
2023-03-24T02:38:15.229Z,97303.50
2023-03-24T02:39:35.148Z,97294.72
2023-03-24T02:40:51.943Z,97293.56
2023-03-24T02:41:56.284Z,97294.97
2023-03-24T02:43:36.499Z,97294.75
2023-03-24T02:44:56.763Z,97291.97
2023-03-24T02:46:13.715Z,97293.34
2023-03-24T02:47:36.626Z,97284.91
2023-03-24T02:48:50.482Z,97281.59
2023-03-24T02:50:23.618Z,97276.28
2023-03-24T02:51:31.034Z,97279.38
2023-03-24T02:52:43.127Z,97277.06
2023-03-24T02:53:56.817Z,97271.84
2023-03-24T02:55:19.173Z,97271.41
2023-03-24T02:56:47.868Z,97266.50
2023-03-24T02:57:52.857Z,97269.69
2023-03-24T02:58:58.924Z,97267.31
2023-03-24T03:00:22.069Z,97266.69
2023-03-24T03:01:32.376Z,97258.19
2023-03-24T03:02:35.077Z,97260.63
2023-03-24T03:03:41.521Z,97270.75
2023-03-24T03:04:50.447Z,97262.59
2023-03-24T03:05:58.716Z,97265.97
2023-03-24T03:07:02.821Z,97237.50
2023-03-24T03:08:05.872Z,97256.72
2023-03-24T03:09:10.512Z,97251.66
2023-03-24T03:10:21.705Z,97251.56
2023-03-24T03:11:23.253Z,97257.63
2023-03-24T03:12:25.714Z,97240.81
2023-03-24T03:13:44.064Z,97249.41
2023-03-24T03:14:50.904Z,97242.53
2023-03-24T03:15:54.394Z,97250.50
2023-03-24T03:17:06.301Z,97246.13
2023-03-24T03:18:11.435Z,97253.81
2023-03-24T03:19:29.245Z,97253.00
2023-03-24T03:20:31.114Z,97229.84
2023-03-24T03:21:35.436Z,97251.38
2023-03-24T03:23:03.853Z,97251.81
2023-03-24T03:24:08.209Z,97258.78
2023-03-24T03:25:10.847Z,97249.06
2023-03-24T03:26:16.448Z,97253.59
2023-03-24T03:27:28.995Z,97227.38
2023-03-24T03:28:32.383Z,97245.81
2023-03-24T03:29:39.342Z,97253.09
2023-03-24T03:30:42.289Z,97251.13
2023-03-24T03:31:53.157Z,97245.06
2023-03-24T03:33:02.555Z,97247.56
2023-03-24T03:34:12.472Z,97250.22
2023-03-24T03:35:17.332Z,97245.72
2023-03-24T03:36:24.837Z,97238.94
2023-03-24T03:37:30.677Z,97241.81
2023-03-24T03:38:53.149Z,97239.63
2023-03-24T03:39:56.951Z,97236.72
2023-03-24T03:41:00.309Z,97225.91
2023-03-24T03:42:02.258Z,97233.22
2023-03-24T03:43:04.502Z,97235.25
2023-03-24T03:44:06.524Z,97230.50
2023-03-24T03:45:10.361Z,97223.66
2023-03-24T03:46:11.925Z,97220.28
2023-03-24T03:47:15.077Z,97228.75
2023-03-24T03:48:16.877Z,97230.84
2023-03-24T03:49:18.407Z,97231.94
2023-03-24T03:50:20.265Z,97241.53
2023-03-24T03:51:21.911Z,97244.47
2023-03-24T03:52:23.410Z,97221.88
2023-03-24T03:53:28.488Z,97238.94
2023-03-24T03:54:30.866Z,97230.84
2023-03-24T03:55:32.910Z,97241.09
2023-03-24T03:56:35.395Z,97240.34
2023-03-24T03:57:36.974Z,97243.13
2023-03-24T03:58:39.780Z,97243.13
2023-03-24T03:59:41.405Z,97242.34
2023-03-24T04:00:44.366Z,97226.63
2023-03-24T04:01:46.773Z,97240.72
2023-03-24T04:03:13.134Z,97239.75
2023-03-24T04:04:38.045Z,97240.50
2023-03-24T04:05:47.398Z,97234.44
2023-03-24T04:07:08.227Z,97236.75
2023-03-24T04:08:18.745Z,97246.81
2023-03-24T04:09:40.409Z,97244.09
2023-03-24T04:10:50.770Z,97239.19
2023-03-24T04:12:24.579Z,97237.47
2023-03-24T04:13:32.829Z,97237.56
2023-03-24T04:15:02.141Z,97238.09
2023-03-24T04:16:06.970Z,97234.13
2023-03-24T04:17:30.198Z,97235.41
2023-03-24T04:18:47.266Z,97241.25
2023-03-24T04:20:22.822Z,97239.81
2023-03-24T04:21:33.855Z,97231.25
2023-03-24T04:22:46.639Z,97229.66
2023-03-24T04:24:26.737Z,97232.84
2023-03-24T04:26:06.188Z,97227.19
2023-03-24T04:27:16.585Z,97225.16
2023-03-24T04:28:32.328Z,97232.34
2023-03-24T04:29:58.286Z,97223.34
2023-03-24T04:31:30.868Z,97228.75
2023-03-24T04:32:54.376Z,97224.53
2023-03-24T04:34:04.302Z,97233.13
2023-03-24T04:35:07.853Z,97237.56
2023-03-24T04:36:19.571Z,97230.97
2023-03-24T04:37:25.769Z,97228.56
2023-03-24T04:38:27.820Z,97225.94
2023-03-24T04:39:30.405Z,97209.81
2023-03-24T04:40:33.151Z,97228.56
2023-03-24T04:41:34.709Z,97209.53
2023-03-24T04:42:47.583Z,97229.06
2023-03-24T04:43:49.166Z,97225.84
2023-03-24T04:44:51.698Z,97220.53
2023-03-24T04:45:57.896Z,97224.59
2023-03-24T04:47:00.312Z,97217.75
2023-03-24T04:48:06.796Z,97214.03
2023-03-24T04:49:08.802Z,97215.41
2023-03-24T04:50:12.601Z,97212.66
2023-03-24T04:51:14.503Z,97215.84
2023-03-24T04:52:17.919Z,97214.81
2023-03-24T04:53:19.643Z,97214.28
2023-03-24T04:54:21.872Z,97219.19
2023-03-24T04:55:32.314Z,97221.06
2023-03-24T04:56:39.999Z,97198.13
2023-03-24T04:57:41.630Z,97220.28
2023-03-24T04:58:43.151Z,97220.13
2023-03-24T04:59:44.828Z,97219.34
2023-03-24T05:00:46.424Z,97216.72
2023-03-24T05:01:50.631Z,97218.34
2023-03-24T05:02:52.278Z,97224.22
2023-03-24T05:03:54.038Z,97211.28
2023-03-24T05:04:55.560Z,97211.47
2023-03-24T05:05:57.527Z,97216.59
2023-03-24T05:06:59.056Z,97216.19
2023-03-24T05:08:01.115Z,97203.94
2023-03-24T05:09:03.170Z,97207.88
2023-03-24T05:10:04.935Z,97190.53
2023-03-24T05:11:07.110Z,97187.72
2023-03-24T05:12:08.636Z,97185.75
2023-03-24T05:13:10.258Z,97186.94
2023-03-24T05:14:11.812Z,97179.16
2023-03-24T05:15:13.827Z,97183.41
2023-03-24T05:16:16.070Z,97154.72
2023-03-24T05:17:17.659Z,97183.41
2023-03-24T05:18:19.169Z,97181.22
2023-03-24T05:19:20.941Z,97178.50
2023-03-24T05:20:23.020Z,97175.72
2023-03-24T05:21:24.658Z,97180.28
2023-03-24T05:22:26.372Z,97182.72
2023-03-24T05:23:27.892Z,97182.22
2023-03-24T05:24:29.427Z,97192.03
2023-03-24T05:25:30.950Z,97190.66
2023-03-24T05:26:33.374Z,97184.34
2023-03-24T05:27:35.233Z,97196.16
2023-03-24T05:28:36.736Z,97202.88
2023-03-24T05:29:38.256Z,97190.84
2023-03-24T05:30:39.908Z,97181.75
2023-03-24T05:31:41.806Z,97195.69
2023-03-24T05:32:45.338Z,97196.75
2023-03-24T05:33:48.732Z,97183.78
2023-03-24T05:34:50.374Z,97207.19
2023-03-24T05:35:51.919Z,97190.13
2023-03-24T05:36:53.526Z,97200.00
2023-03-24T05:37:55.204Z,97201.03
2023-03-24T05:38:56.794Z,97208.09
2023-03-24T05:39:58.319Z,97198.22
2023-03-24T05:41:00.107Z,97203.44
2023-03-24T05:42:01.615Z,97211.88
2023-03-24T05:43:03.174Z,97224.75
2023-03-24T05:44:04.709Z,97219.44
2023-03-24T05:45:06.889Z,97214.22
2023-03-24T05:46:08.422Z,97219.09
2023-03-24T05:47:10.019Z,97221.53
2023-03-24T05:48:11.633Z,97214.22
2023-03-24T05:49:15.107Z,97215.16
2023-03-24T05:50:16.762Z,97220.13
2023-03-24T05:51:18.597Z,97226.44
2023-03-24T05:52:20.770Z,97225.88
2023-03-24T05:53:22.288Z,97226.38
2023-03-24T05:54:23.848Z,97232.84
2023-03-24T05:55:25.488Z,97225.50
2023-03-24T05:56:28.221Z,97222.25
2023-03-24T05:57:34.735Z,97229.06
2023-03-24T05:58:39.216Z,97223.63
2023-03-24T05:59:40.720Z,97224.84
2023-03-24T06:00:42.264Z,97236.56
2023-03-24T06:01:43.792Z,97236.56
2023-03-24T06:02:45.694Z,97223.44
2023-03-24T06:03:49.243Z,97240.69
2023-03-24T06:04:51.818Z,97250.63
2023-03-24T06:05:53.636Z,97234.06
2023-03-24T06:06:56.025Z,97241.16
2023-03-24T06:08:01.460Z,97249.53
2023-03-24T06:09:04.812Z,97250.84
2023-03-24T06:10:07.746Z,97249.34
2023-03-24T06:11:09.474Z,97245.84
2023-03-24T06:12:10.999Z,97246.69
2023-03-24T06:13:12.753Z,97256.06
2023-03-24T06:14:14.772Z,97256.88
2023-03-24T06:15:17.492Z,97255.28
2023-03-24T06:16:23.872Z,97250.84
2023-03-24T06:17:25.752Z,97233.78
2023-03-24T06:18:27.331Z,97231.47
2023-03-24T06:19:33.752Z,97241.38
2023-03-24T06:20:36.144Z,97248.03
2023-03-24T06:21:37.789Z,97252.00
2023-03-24T06:22:39.287Z,97246.25
2023-03-24T06:23:40.796Z,97237.00
2023-03-24T06:24:42.432Z,97253.34
2023-03-24T06:25:44.941Z,97247.22
2023-03-24T06:26:50.020Z,97219.59
2023-03-24T06:27:52.013Z,97251.38
2023-03-24T06:28:53.523Z,97239.09
2023-03-24T06:29:55.290Z,97248.22
2023-03-24T06:30:59.204Z,97254.09
2023-03-24T06:32:00.842Z,97258.38
2023-03-24T06:33:02.390Z,97260.50
2023-03-24T06:34:04.325Z,97261.22
2023-03-24T06:35:07.292Z,97233.38
2023-03-24T06:36:09.711Z,97263.94
2023-03-24T06:37:11.384Z,97267.56
2023-03-24T06:38:13.072Z,97264.78
2023-03-24T06:39:14.749Z,97253.59
2023-03-24T06:40:17.595Z,97281.50
2023-03-24T06:41:19.136Z,97270.94
2023-03-24T06:42:20.735Z,97279.22
2023-03-24T06:43:22.228Z,97279.22
2023-03-24T06:44:23.792Z,97230.75
2023-03-24T06:45:25.387Z,97220.84
2023-03-24T06:46:26.977Z,97289.97
2023-03-24T06:47:28.567Z,97285.03
2023-03-24T06:48:30.230Z,97289.66
2023-03-24T06:49:32.144Z,97288.59
2023-03-24T06:50:35.770Z,97278.94
2023-03-24T06:51:37.278Z,97308.31
2023-03-24T06:52:38.787Z,97294.06
2023-03-24T06:53:41.336Z,97304.59
2023-03-24T06:54:42.857Z,97307.72
2023-03-24T06:55:44.904Z,97309.84
2023-03-24T06:56:46.703Z,97307.41
2023-03-24T06:57:48.320Z,97298.88
2023-03-24T06:58:49.877Z,97308.31
2023-03-24T06:59:51.360Z,97314.34
2023-03-24T07:00:53.846Z,97312.59
2023-03-24T07:01:55.596Z,97298.94
2023-03-24T07:02:57.328Z,97311.09
2023-03-24T07:03:58.901Z,97315.97
2023-03-24T07:05:04.714Z,97324.19
2023-03-24T07:06:07.515Z,97326.16
2023-03-24T07:07:34.067Z,97321.53
2023-03-24T07:08:38.216Z,97317.91
2023-03-24T07:09:40.426Z,97326.38
2023-03-24T07:10:43.119Z,97330.00
2023-03-24T07:11:44.779Z,97325.78
2023-03-24T07:12:47.700Z,97332.59
2023-03-24T07:13:49.514Z,97322.66
2023-03-24T07:14:51.119Z,97329.31
2023-03-24T07:15:52.713Z,97326.78
2023-03-24T07:16:54.272Z,97328.75
2023-03-24T07:17:55.850Z,97329.72
2023-03-24T07:18:57.424Z,97338.69
2023-03-24T07:19:58.993Z,97319.72
2023-03-24T07:21:00.732Z,97337.41
2023-03-24T07:22:02.474Z,97337.13
2023-03-24T07:23:04.020Z,97333.16
2023-03-24T07:24:05.870Z,97340.81
2023-03-24T07:25:07.817Z,97340.31
2023-03-24T07:26:09.298Z,97331.66
2023-03-24T07:27:11.011Z,97339.44
2023-03-24T07:28:12.677Z,97339.03
2023-03-24T07:29:14.519Z,97335.59
2023-03-24T07:30:17.221Z,97317.78
2023-03-24T07:31:22.924Z,97332.28
2023-03-24T07:32:24.858Z,97323.13
2023-03-24T07:33:26.600Z,97322.13
2023-03-24T07:34:28.492Z,97334.03
2023-03-24T07:35:30.428Z,97336.00
2023-03-24T07:36:32.031Z,97323.25
2023-03-24T07:37:33.575Z,97325.66
2023-03-24T07:38:35.144Z,97343.31
2023-03-24T07:39:36.740Z,97342.66
2023-03-24T07:40:38.336Z,97339.69
2023-03-24T07:41:39.960Z,97345.13
2023-03-24T07:42:42.397Z,97336.84
2023-03-24T07:43:43.886Z,97352.81
2023-03-24T07:44:46.419Z,97355.13
2023-03-24T07:45:48.431Z,97351.09
2023-03-24T07:46:50.303Z,97350.97
2023-03-24T07:47:51.853Z,97348.38
2023-03-24T07:48:53.419Z,97354.72
2023-03-24T07:49:55.053Z,97342.16
2023-03-24T07:50:56.696Z,97340.75
2023-03-24T07:51:59.150Z,97329.78
2023-03-24T07:53:00.782Z,97336.38
2023-03-24T07:54:02.731Z,97346.41
2023-03-24T07:55:05.696Z,97338.88
2023-03-24T07:56:07.792Z,97341.38
2023-03-24T07:57:11.070Z,97347.78
2023-03-24T07:58:12.895Z,97332.13
2023-03-24T07:59:14.591Z,97321.28
2023-03-24T08:00:20.177Z,97327.53
2023-03-24T08:01:21.656Z,97331.50
2023-03-24T08:02:23.337Z,97331.19
2023-03-24T08:03:27.815Z,97337.69
2023-03-24T08:04:29.513Z,97336.38
2023-03-24T08:05:31.421Z,97342.22
2023-03-24T08:06:33.008Z,97336.91
2023-03-24T08:07:34.993Z,97332.59
2023-03-24T08:08:36.965Z,97333.50
2023-03-24T08:09:39.260Z,97330.41
2023-03-24T08:10:40.946Z,97331.16
2023-03-24T08:11:42.480Z,97334.63
2023-03-24T08:12:44.122Z,97329.47
2023-03-24T08:13:45.659Z,97338.66
2023-03-24T08:14:47.178Z,97340.19
2023-03-24T08:15:48.874Z,97337.63
2023-03-24T08:16:50.584Z,97322.97
2023-03-24T08:17:52.146Z,97339.00
2023-03-24T08:18:53.745Z,97341.88
2023-03-24T08:20:00.778Z,97343.75
2023-03-24T08:21:03.725Z,97342.81
2023-03-24T08:22:05.401Z,97349.06
2023-03-24T08:23:07.156Z,97354.31
2023-03-24T08:24:08.701Z,97345.94
2023-03-24T08:25:11.269Z,97349.66
2023-03-24T08:26:12.918Z,97348.03
2023-03-24T08:27:14.459Z,97345.00
2023-03-24T08:28:16.682Z,97346.19
2023-03-24T08:29:18.260Z,97352.63
2023-03-24T08:30:21.430Z,97344.56
2023-03-24T08:31:23.078Z,97326.94
2023-03-24T08:32:24.695Z,97308.03
2023-03-24T08:33:26.268Z,97338.44
2023-03-24T08:34:27.978Z,97349.72
2023-03-24T08:35:31.835Z,97342.50
2023-03-24T08:36:33.403Z,97353.28
2023-03-24T08:37:34.914Z,97362.88
2023-03-24T08:38:38.758Z,97352.59
2023-03-24T08:39:40.348Z,97352.41
2023-03-24T08:40:42.488Z,97349.63
2023-03-24T08:41:45.249Z,97355.94
2023-03-24T08:42:54.604Z,97346.91
2023-03-24T08:43:56.622Z,97352.88
2023-03-24T08:44:58.169Z,97349.75
2023-03-24T08:46:00.311Z,97340.91
2023-03-24T08:47:02.378Z,97331.88
2023-03-24T08:48:05.634Z,97362.78
2023-03-24T08:49:07.170Z,97359.28
2023-03-24T08:50:09.289Z,97351.31
2023-03-24T08:51:15.430Z,97357.63
2023-03-24T08:52:18.063Z,97353.88
2023-03-24T08:53:19.565Z,97360.94
2023-03-24T08:54:23.594Z,97364.63
2023-03-24T08:55:25.536Z,97364.19
2023-03-24T08:56:27.150Z,97359.06
2023-03-24T08:57:28.698Z,97357.03
2023-03-24T08:58:30.400Z,97368.75
2023-03-24T08:59:31.916Z,97370.41
2023-03-24T09:00:33.484Z,97367.44
2023-03-24T09:01:35.401Z,97372.06
2023-03-24T09:02:36.958Z,97359.44
2023-03-24T09:03:39.578Z,97347.72
2023-03-24T09:04:42.923Z,97353.41
2023-03-24T09:05:46.822Z,97346.25
2023-03-24T09:06:49.843Z,97367.47
2023-03-24T09:07:51.654Z,97360.13
2023-03-24T09:08:54.305Z,97368.13
2023-03-24T09:09:55.972Z,97369.41
2023-03-24T09:10:57.963Z,97373.47
2023-03-24T09:11:59.474Z,97374.38
2023-03-24T09:13:01.087Z,97363.41
2023-03-24T09:14:02.717Z,97364.97
2023-03-24T09:15:05.136Z,97358.97
2023-03-24T09:16:07.370Z,97374.72
2023-03-24T09:17:09.378Z,97365.34
2023-03-24T09:18:10.887Z,97372.19
2023-03-24T09:19:12.404Z,97367.88
2023-03-24T09:20:15.050Z,97344.91
2023-03-24T09:21:16.943Z,97375.00
2023-03-24T09:22:18.478Z,97377.44
2023-03-24T09:23:20.226Z,97372.78
2023-03-24T09:24:21.773Z,97372.06
2023-03-24T09:25:23.553Z,97360.47
2023-03-24T09:26:25.109Z,97372.13
2023-03-24T09:27:26.618Z,97372.47
2023-03-24T09:28:28.271Z,97371.66
2023-03-24T09:29:30.466Z,97368.53
2023-03-24T09:30:34.677Z,97361.28
2023-03-24T09:31:36.814Z,97351.53
2023-03-24T09:32:38.483Z,97346.25
2023-03-24T09:33:40.077Z,97351.84
2023-03-24T09:34:41.692Z,97355.78
2023-03-24T09:35:43.815Z,97355.47
2023-03-24T09:36:45.516Z,97341.31
2023-03-24T09:37:47.149Z,97345.09
2023-03-24T09:38:48.682Z,97359.19
2023-03-24T09:39:50.645Z,97354.81
2023-03-24T09:40:58.262Z,97352.69
2023-03-24T09:41:59.996Z,97358.06
2023-03-24T09:43:05.665Z,97360.75
2023-03-24T09:44:28.194Z,97371.94
2023-03-24T09:45:30.713Z,97369.38
2023-03-24T09:46:39.864Z,97358.31
2023-03-24T09:47:44.290Z,97355.88
2023-03-24T09:48:51.626Z,97362.03
2023-03-24T09:49:53.643Z,97364.63
2023-03-24T09:50:58.117Z,97352.13
2023-03-24T09:52:06.817Z,97348.59
2023-03-24T09:53:15.883Z,97365.50
2023-03-24T09:54:27.315Z,97361.94
2023-03-24T09:55:28.963Z,97355.47
2023-03-24T09:56:30.709Z,97356.00
2023-03-24T09:57:39.299Z,97362.63
2023-03-24T09:58:43.748Z,97343.28
2023-03-24T09:59:48.244Z,97347.59
2023-03-24T10:00:49.879Z,97337.47
2023-03-24T10:01:52.446Z,97350.34
2023-03-24T10:02:57.637Z,97354.50
2023-03-24T10:03:59.645Z,97359.47
2023-03-24T10:05:01.361Z,97350.69
2023-03-24T10:06:28.738Z,97356.97
2023-03-24T10:07:36.241Z,97351.66
2023-03-24T10:08:45.087Z,97345.28
2023-03-24T10:09:50.025Z,97339.84
2023-03-24T10:11:04.685Z,97374.66
2023-03-24T10:12:26.209Z,97373.66
2023-03-24T10:13:40.111Z,97362.63
2023-03-24T10:15:00.279Z,97355.06
2023-03-24T10:16:08.168Z,97361.56
2023-03-24T10:17:34.518Z,97363.50
2023-03-24T10:19:10.491Z,97349.69
2023-03-24T10:20:15.939Z,97347.81
2023-03-24T10:21:20.737Z,97349.47
2023-03-24T10:22:28.503Z,97345.09
2023-03-24T10:23:37.764Z,97354.53
2023-03-24T10:24:59.548Z,97361.19
2023-03-24T10:26:26.977Z,97357.28
2023-03-24T10:27:32.355Z,97355.88
2023-03-24T10:28:58.318Z,97350.66
2023-03-24T10:30:22.056Z,97335.19
2023-03-24T10:31:28.770Z,97345.16
2023-03-24T10:32:30.394Z,97367.50
2023-03-24T10:33:31.970Z,97352.53
2023-03-24T10:34:34.472Z,97338.09
2023-03-24T10:35:38.284Z,97343.50
2023-03-24T10:36:40.008Z,97349.59
2023-03-24T10:37:41.648Z,97354.31
2023-03-24T10:38:43.205Z,97351.31
2023-03-24T10:39:45.433Z,97351.66
2023-03-24T10:40:47.676Z,97355.72
2023-03-24T10:41:49.198Z,97328.13
2023-03-24T10:43:07.154Z,97362.00
2023-03-24T10:44:12.697Z,97357.81
2023-03-24T10:45:15.454Z,97344.22
2023-03-24T10:46:21.039Z,97346.78
2023-03-24T10:47:27.200Z,97348.09
2023-03-24T10:48:55.167Z,97347.31
2023-03-24T10:50:12.817Z,97340.66
2023-03-24T10:51:27.310Z,97348.84
2023-03-24T10:52:29.484Z,97351.25
2023-03-24T10:53:31.018Z,97356.94
2023-03-24T10:54:32.687Z,97352.50
2023-03-24T10:55:39.186Z,97341.34
2023-03-24T10:56:51.196Z,97348.03
2023-03-24T10:57:56.854Z,97362.56
2023-03-24T10:58:58.348Z,97361.22
2023-03-24T11:00:01.583Z,97366.03
2023-03-24T11:01:03.656Z,97344.56
2023-03-24T11:02:18.726Z,97353.03
2023-03-24T11:03:27.150Z,97363.63
2023-03-24T11:04:30.750Z,97364.44
2023-03-24T11:05:33.745Z,97377.69
2023-03-24T11:06:35.316Z,97369.63
2023-03-24T11:07:42.012Z,97360.09
2023-03-24T11:08:43.628Z,97368.56
2023-03-24T11:09:46.663Z,97355.03
2023-03-24T11:10:49.734Z,97369.63
2023-03-24T11:11:53.072Z,97348.59
2023-03-24T11:12:54.518Z,97367.47
2023-03-24T11:14:03.644Z,97361.50
2023-03-24T11:15:31.380Z,97368.81
2023-03-24T11:16:38.164Z,97353.53
2023-03-24T11:17:39.775Z,97354.91
2023-03-24T11:18:56.899Z,97349.72
2023-03-24T11:19:58.436Z,97336.63
2023-03-24T11:21:07.392Z,97332.03
2023-03-24T11:22:10.313Z,97341.78
2023-03-24T11:23:14.647Z,97347.72
2023-03-24T11:24:17.551Z,97355.00
2023-03-24T11:25:18.949Z,97352.47
2023-03-24T11:26:30.316Z,97354.72
2023-03-24T11:27:31.960Z,97352.31
2023-03-24T11:28:38.903Z,97336.94
2023-03-24T11:29:40.920Z,97355.50
2023-03-24T11:30:50.289Z,97335.09
2023-03-24T11:31:54.741Z,97340.38
2023-03-24T11:32:56.429Z,97346.22
2023-03-24T11:34:09.319Z,97327.44
2023-03-24T11:35:17.459Z,97333.13
2023-03-24T11:36:30.992Z,97335.06
2023-03-24T11:37:34.616Z,97312.34
2023-03-24T11:38:36.548Z,97340.88
2023-03-24T11:39:38.250Z,97337.97
2023-03-24T11:40:39.793Z,97336.63
2023-03-24T11:41:43.157Z,97338.44
2023-03-24T11:42:50.720Z,97339.78
2023-03-24T11:44:23.202Z,97339.84
2023-03-24T11:45:54.176Z,97340.69
2023-03-24T11:46:57.931Z,97338.66
2023-03-24T11:47:59.641Z,97335.13
2023-03-24T11:49:02.376Z,97338.03
2023-03-24T11:50:09.502Z,97333.22
2023-03-24T11:51:12.621Z,97324.25
2023-03-24T11:52:29.211Z,97338.06
2023-03-24T11:53:41.249Z,97332.00
2023-03-24T11:54:42.780Z,97323.47
2023-03-24T11:56:08.603Z,97321.75
2023-03-24T11:57:12.418Z,97319.13
2023-03-24T11:58:19.311Z,97315.69
2023-03-24T11:59:45.043Z,97314.47
2023-03-24T12:01:04.215Z,97322.19
2023-03-24T12:02:08.549Z,97320.50
2023-03-24T12:03:47.793Z,97326.06
2023-03-24T12:05:10.943Z,97313.13
2023-03-24T12:06:18.207Z,97311.28
2023-03-24T12:07:35.406Z,97305.53
2023-03-24T12:09:10.663Z,97306.81
2023-03-24T12:10:21.283Z,97298.94
2023-03-24T12:11:39.605Z,97297.97
2023-03-24T12:12:43.502Z,97283.53
2023-03-24T12:13:49.666Z,97289.28
2023-03-24T12:15:26.515Z,97295.53
2023-03-24T12:16:37.794Z,97289.34
2023-03-24T12:17:43.071Z,97289.84
2023-03-24T12:19:03.033Z,97296.78
2023-03-24T12:20:32.946Z,97282.81
2023-03-24T12:21:37.570Z,97297.75
2023-03-24T12:22:48.582Z,97295.66
2023-03-24T12:23:57.432Z,97295.44
2023-03-24T12:25:10.975Z,97282.59
2023-03-24T12:26:19.978Z,97284.75
2023-03-24T12:27:27.266Z,97283.63
2023-03-24T12:28:59.006Z,97281.19
2023-03-24T12:30:02.479Z,97296.28
2023-03-24T12:31:37.139Z,97278.88
2023-03-24T12:32:41.902Z,97280.88
2023-03-24T12:34:21.236Z,97279.22
2023-03-24T12:35:51.052Z,97261.34
2023-03-24T12:37:11.745Z,97278.16
2023-03-24T12:38:34.678Z,97267.88
2023-03-24T12:39:43.085Z,97261.59
2023-03-24T12:41:00.799Z,97244.31
2023-03-24T12:42:10.960Z,97255.84
2023-03-24T12:43:57.368Z,97257.91
2023-03-24T12:45:45.596Z,97237.00
2023-03-24T12:47:05.344Z,97248.16
2023-03-24T12:48:30.885Z,97232.13
2023-03-24T12:49:38.496Z,97237.41
2023-03-24T12:50:49.493Z,97237.81
2023-03-24T12:51:57.808Z,97251.22
2023-03-24T12:54:33.563Z,97245.63
2023-03-24T12:55:46.094Z,97241.31
2023-03-24T12:56:51.064Z,97246.75
2023-03-24T12:58:02.957Z,97252.66
2023-03-24T12:59:25.769Z,97258.16
2023-03-24T13:00:31.998Z,97266.63